sensor_id;sensor_type;location;lat;lon;timestamp;pressure;altitude;pressure_sealevel;temperature;humidity
15529;BME280;7866;52.280;9.500;2023-04-01T00:00:13;98240.41;;;10.44;95.85
15529;BME280;7866;52.280;9.500;2023-04-01T00:05:15;98234.47;;;10.42;95.42
15529;BME280;7866;52.280;9.500;2023-04-01T00:10:18;98244.28;;;10.48;95.38
15529;BME280;7866;52.280;9.500;2023-04-01T00:15:20;98228.88;;;10.44;94.27
15529;BME280;7866;52.280;9.500;2023-04-01T00:20:22;98237.72;;;10.44;94.91
15529;BME280;7866;52.280;9.500;2023-04-01T00:25:25;98238.91;;;10.48;94.73
15529;BME280;7866;52.280;9.500;2023-04-01T00:30:27;98231.78;;;10.42;94.43
15529;BME280;7866;52.280;9.500;2023-04-01T00:35:28;98234.91;;;10.39;94.70
15529;BME280;7866;52.280;9.500;2023-04-01T00:40:33;98240.09;;;10.34;94.87
15529;BME280;7866;52.280;9.500;2023-04-01T00:45:36;98236.81;;;10.32;94.69
15529;BME280;7866;52.280;9.500;2023-04-01T00:50:41;98236.66;;;10.27;94.15
15529;BME280;7866;52.280;9.500;2023-04-01T00:55:49;98232.75;;;10.23;95.48
15529;BME280;7866;52.280;9.500;2023-04-01T01:00:53;98238.91;;;10.23;95.07
15529;BME280;7866;52.280;9.500;2023-04-01T01:11:01;98232.78;;;10.16;95.63
15529;BME280;7866;52.280;9.500;2023-04-01T01:16:06;98233.03;;;10.15;96.48
15529;BME280;7866;52.280;9.500;2023-04-01T01:21:24;98224.56;;;10.18;95.18
15529;BME280;7866;52.280;9.500;2023-04-01T01:26:46;98225.81;;;10.15;95.18
15529;BME280;7866;52.280;9.500;2023-04-01T01:31:57;98226.03;;;10.14;95.25
15529;BME280;7866;52.280;9.500;2023-04-01T01:37:08;98223.72;;;10.17;95.43
15529;BME280;7866;52.280;9.500;2023-04-01T01:42:15;98229.47;;;10.21;95.06
15529;BME280;7866;52.280;9.500;2023-04-01T01:47:19;98226.41;;;10.17;94.57
15529;BME280;7866;52.280;9.500;2023-04-01T01:52:27;98231.75;;;10.17;94.81
15529;BME280;7866;52.280;9.500;2023-04-01T01:57:32;98232.22;;;10.14;94.76
15529;BME280;7866;52.280;9.500;2023-04-01T02:02:35;98223.72;;;10.17;94.48
15529;BME280;7866;52.280;9.500;2023-04-01T02:07:39;98233.59;;;10.17;94.38
15529;BME280;7866;52.280;9.500;2023-04-01T02:12:44;98235.03;;;10.19;93.43
15529;BME280;7866;52.280;9.500;2023-04-01T02:17:48;98231.94;;;10.22;93.20
15529;BME280;7866;52.280;9.500;2023-04-01T02:22:54;98234.41;;;10.17;93.28
15529;BME280;7866;52.280;9.500;2023-04-01T02:27:59;98230.53;;;10.13;93.11
15529;BME280;7866;52.280;9.500;2023-04-01T02:33:03;98233.88;;;10.08;93.34
15529;BME280;7866;52.280;9.500;2023-04-01T02:38:06;98242.38;;;10.05;93.82
15529;BME280;7866;52.280;9.500;2023-04-01T02:43:08;98232.88;;;10.09;94.37
15529;BME280;7866;52.280;9.500;2023-04-01T02:48:10;98231.81;;;10.10;94.27
15529;BME280;7866;52.280;9.500;2023-04-01T02:53:14;98237.31;;;10.16;94.10
15529;BME280;7866;52.280;9.500;2023-04-01T02:58:16;98228.91;;;10.12;93.40
15529;BME280;7866;52.280;9.500;2023-04-01T03:03:17;98239.41;;;10.14;93.12
15529;BME280;7866;52.280;9.500;2023-04-01T03:08:20;98239.03;;;10.10;92.92
15529;BME280;7866;52.280;9.500;2023-04-01T03:13:22;98238.56;;;10.13;92.32
15529;BME280;7866;52.280;9.500;2023-04-01T03:18:24;98249.50;;;10.11;92.83
15529;BME280;7866;52.280;9.500;2023-04-01T03:23:26;98246.25;;;10.09;92.48
15529;BME280;7866;52.280;9.500;2023-04-01T03:28:28;98246.66;;;10.06;93.46
15529;BME280;7866;52.280;9.500;2023-04-01T03:33:30;98239.06;;;10.03;92.91
15529;BME280;7866;52.280;9.500;2023-04-01T03:38:34;98242.16;;;10.00;92.92
15529;BME280;7866;52.280;9.500;2023-04-01T03:43:36;98247.09;;;10.03;93.37
15529;BME280;7866;52.280;9.500;2023-04-01T03:48:37;98254.50;;;10.01;93.09
15529;BME280;7866;52.280;9.500;2023-04-01T03:53:40;98262.09;;;10.04;93.17
15529;BME280;7866;52.280;9.500;2023-04-01T03:58:42;98261.50;;;10.02;93.84
15529;BME280;7866;52.280;9.500;2023-04-01T04:03:43;98256.59;;;9.99;94.27
15529;BME280;7866;52.280;9.500;2023-04-01T04:08:47;98263.41;;;9.95;94.36
15529;BME280;7866;52.280;9.500;2023-04-01T04:13:49;98264.06;;;9.91;94.92
15529;BME280;7866;52.280;9.500;2023-04-01T04:18:52;98259.09;;;9.94;94.66
15529;BME280;7866;52.280;9.500;2023-04-01T04:23:55;98256.22;;;9.89;95.51
15529;BME280;7866;52.280;9.500;2023-04-01T04:28:57;98257.44;;;9.93;95.64
15529;BME280;7866;52.280;9.500;2023-04-01T04:33:59;98258.28;;;9.94;95.51
15529;BME280;7866;52.280;9.500;2023-04-01T04:39:02;98255.66;;;9.87;95.95
15529;BME280;7866;52.280;9.500;2023-04-01T04:44:04;98252.53;;;9.90;95.42
15529;BME280;7866;52.280;9.500;2023-04-01T04:49:07;98257.91;;;9.90;96.03
15529;BME280;7866;52.280;9.500;2023-04-01T04:54:10;98251.72;;;9.90;95.75
15529;BME280;7866;52.280;9.500;2023-04-01T04:59:11;98266.34;;;9.87;96.77
15529;BME280;7866;52.280;9.500;2023-04-01T05:04:13;98275.34;;;9.93;95.97
15529;BME280;7866;52.280;9.500;2023-04-01T05:09:16;98269.41;;;9.91;96.36
15529;BME280;7866;52.280;9.500;2023-04-01T05:14:17;98276.34;;;9.98;95.49
15529;BME280;7866;52.280;9.500;2023-04-01T05:19:19;98279.66;;;9.94;95.90
15529;BME280;7866;52.280;9.500;2023-04-01T05:24:22;98283.91;;;10.01;95.66
15529;BME280;7866;52.280;9.500;2023-04-01T05:29:24;98287.38;;;10.08;95.56
15529;BME280;7866;52.280;9.500;2023-04-01T05:34:26;98289.03;;;10.09;95.20
15529;BME280;7866;52.280;9.500;2023-04-01T05:39:29;98296.16;;;10.16;94.97
15529;BME280;7866;52.280;9.500;2023-04-01T05:44:30;98299.66;;;10.16;94.74
15529;BME280;7866;52.280;9.500;2023-04-01T05:49:33;98309.72;;;10.21;94.67
15529;BME280;7866;52.280;9.500;2023-04-01T05:54:36;98308.31;;;10.18;94.44
15529;BME280;7866;52.280;9.500;2023-04-01T05:59:37;98309.28;;;10.24;94.21
15529;BME280;7866;52.280;9.500;2023-04-01T06:04:40;98317.72;;;10.21;94.29
15529;BME280;7866;52.280;9.500;2023-04-01T06:09:43;98323.06;;;10.27;93.99
15529;BME280;7866;52.280;9.500;2023-04-01T06:14:52;98321.59;;;10.31;93.82
15529;BME280;7866;52.280;9.500;2023-04-01T06:20:05;98323.47;;;10.31;93.15
15529;BME280;7866;52.280;9.500;2023-04-01T06:25:18;98328.00;;;10.30;93.64
15529;BME280;7866;52.280;9.500;2023-04-01T06:30:35;98335.97;;;10.37;93.50
15529;BME280;7866;52.280;9.500;2023-04-01T06:36:00;98330.41;;;10.39;93.52
15529;BME280;7866;52.280;9.500;2023-04-01T06:41:21;98333.63;;;10.47;93.91
15529;BME280;7866;52.280;9.500;2023-04-01T06:46:31;98337.50;;;10.51;93.53
15529;BME280;7866;52.280;9.500;2023-04-01T06:51:43;98342.44;;;10.54;93.47
15529;BME280;7866;52.280;9.500;2023-04-01T06:56:54;98342.94;;;10.70;93.22
15529;BME280;7866;52.280;9.500;2023-04-01T07:02:02;98346.97;;;10.79;92.92
15529;BME280;7866;52.280;9.500;2023-04-01T07:07:12;98347.88;;;10.91;92.82
15529;BME280;7866;52.280;9.500;2023-04-01T07:12:21;98352.38;;;10.97;91.57
15529;BME280;7866;52.280;9.500;2023-04-01T07:17:27;98349.31;;;10.94;91.43
15529;BME280;7866;52.280;9.500;2023-04-01T07:22:33;98351.34;;;11.35;91.22
15529;BME280;7866;52.280;9.500;2023-04-01T07:27:37;98355.75;;;11.48;89.33
15529;BME280;7866;52.280;9.500;2023-04-01T07:32:42;98359.78;;;11.57;88.83
15529;BME280;7866;52.280;9.500;2023-04-01T07:37:52;98372.66;;;11.85;88.28
15529;BME280;7866;52.280;9.500;2023-04-01T07:43:14;98374.66;;;11.90;87.41
15529;BME280;7866;52.280;9.500;2023-04-01T07:48:27;98383.16;;;11.87;86.91
15529;BME280;7866;52.280;9.500;2023-04-01T07:53:36;98385.88;;;11.80;86.78
15529;BME280;7866;52.280;9.500;2023-04-01T07:58:51;98386.34;;;11.77;86.66
15529;BME280;7866;52.280;9.500;2023-04-01T08:04:10;98404.69;;;11.98;86.69
15529;BME280;7866;52.280;9.500;2023-04-01T08:09:23;98410.72;;;11.94;86.24
15529;BME280;7866;52.280;9.500;2023-04-01T08:14:35;98410.81;;;11.87;86.09
15529;BME280;7866;52.280;9.500;2023-04-01T08:19:51;98418.69;;;12.00;85.94
15529;BME280;7866;52.280;9.500;2023-04-01T08:24:59;98425.22;;;12.23;85.66
15529;BME280;7866;52.280;9.500;2023-04-01T08:30:16;98431.72;;;12.15;85.31
15529;BME280;7866;52.280;9.500;2023-04-01T08:35:26;98438.25;;;12.19;86.07
15529;BME280;7866;52.280;9.500;2023-04-01T08:40:48;98443.06;;;11.99;87.06
15529;BME280;7866;52.280;9.500;2023-04-01T08:46:04;98445.88;;;12.22;88.16
15529;BME280;7866;52.280;9.500;2023-04-01T08:56:56;98454.97;;;12.21;89.07
15529;BME280;7866;52.280;9.500;2023-04-01T09:02:19;98465.56;;;12.46;89.05
15529;BME280;7866;52.280;9.500;2023-04-01T09:07:35;98459.53;;;12.02;88.27
15529;BME280;7866;52.280;9.500;2023-04-01T09:12:54;98475.38;;;12.04;89.98
15529;BME280;7866;52.280;9.500;2023-04-01T09:18:19;98470.41;;;11.89;90.59
15529;BME280;7866;52.280;9.500;2023-04-01T09:23:37;98476.50;;;11.78;90.22
15529;BME280;7866;52.280;9.500;2023-04-01T09:28:46;98481.97;;;11.90;91.24
15529;BME280;7866;52.280;9.500;2023-04-01T09:34:25;98480.56;;;12.05;90.88
15529;BME280;7866;52.280;9.500;2023-04-01T09:39:36;98498.56;;;12.35;90.53
15529;BME280;7866;52.280;9.500;2023-04-01T09:44:44;98496.47;;;12.19;90.39
15529;BME280;7866;52.280;9.500;2023-04-01T09:50:03;98497.66;;;12.23;89.75
15529;BME280;7866;52.280;9.500;2023-04-01T09:55:28;98504.06;;;12.40;90.25
15529;BME280;7866;52.280;9.500;2023-04-01T10:00:53;98504.38;;;12.32;89.97
15529;BME280;7866;52.280;9.500;2023-04-01T10:17:36;98512.38;;;12.80;86.11
15529;BME280;7866;52.280;9.500;2023-04-01T10:22:56;98531.19;;;13.11;86.40
15529;BME280;7866;52.280;9.500;2023-04-01T10:28:29;98537.81;;;13.08;86.16
15529;BME280;7866;52.280;9.500;2023-04-01T10:33:55;98533.75;;;13.05;85.51
15529;BME280;7866;52.280;9.500;2023-04-01T10:39:13;98541.94;;;13.11;84.37
15529;BME280;7866;52.280;9.500;2023-04-01T10:44:51;98542.88;;;13.16;84.45
15529;BME280;7866;52.280;9.500;2023-04-01T10:50:25;98539.16;;;13.17;84.33
15529;BME280;7866;52.280;9.500;2023-04-01T11:13:11;98556.19;;;13.41;85.17
15529;BME280;7866;52.280;9.500;2023-04-01T11:19:08;98554.66;;;13.34;84.63
15529;BME280;7866;52.280;9.500;2023-04-01T11:30:00;98567.63;;;13.48;83.88
15529;BME280;7866;52.280;9.500;2023-04-01T11:35:28;98571.72;;;13.39;84.37
15529;BME280;7866;52.280;9.500;2023-04-01T11:40:37;98576.41;;;13.55;84.07
15529;BME280;7866;52.280;9.500;2023-04-01T11:45:49;98576.53;;;13.49;83.96
15529;BME280;7866;52.280;9.500;2023-04-01T11:51:04;98591.41;;;13.75;84.65
15529;BME280;7866;52.280;9.500;2023-04-01T11:56:24;98591.25;;;13.46;84.25
15529;BME280;7866;52.280;9.500;2023-04-01T12:01:42;98599.84;;;13.90;84.26
15529;BME280;7866;52.280;9.500;2023-04-01T12:06:51;98596.09;;;13.91;82.91
15529;BME280;7866;52.280;9.500;2023-04-01T12:12:10;98603.38;;;13.91;83.44
15529;BME280;7866;52.280;9.500;2023-04-01T12:17:27;98615.06;;;14.08;82.67
15529;BME280;7866;52.280;9.500;2023-04-01T12:22:43;98614.56;;;13.76;81.82
15529;BME280;7866;52.280;9.500;2023-04-01T12:27:59;98622.78;;;13.69;83.19
15529;BME280;7866;52.280;9.500;2023-04-01T12:33:23;98626.50;;;13.80;83.50
15529;BME280;7866;52.280;9.500;2023-04-01T12:38:38;98618.00;;;14.30;83.04
15529;BME280;7866;52.280;9.500;2023-04-01T12:44:23;98632.63;;;14.11;81.97
15529;BME280;7866;52.280;9.500;2023-04-01T12:49:49;98635.06;;;14.47;80.92
15529;BME280;7866;52.280;9.500;2023-04-01T12:55:37;98642.78;;;14.32;78.72
15529;BME280;7866;52.280;9.500;2023-04-01T13:00:49;98650.78;;;14.27;76.38
15529;BME280;7866;52.280;9.500;2023-04-01T13:06:29;98662.69;;;13.96;76.62
15529;BME280;7866;52.280;9.500;2023-04-01T13:11:41;98660.00;;;14.31;77.46
15529;BME280;7866;52.280;9.500;2023-04-01T13:16:52;98665.50;;;14.36;78.25
15529;BME280;7866;52.280;9.500;2023-04-01T13:22:03;98670.50;;;13.74;78.25
15529;BME280;7866;52.280;9.500;2023-04-01T13:27:14;98678.75;;;13.49;79.39
15529;BME280;7866;52.280;9.500;2023-04-01T13:32:29;98685.09;;;13.36;82.11
15529;BME280;7866;52.280;9.500;2023-04-01T13:37:47;98695.34;;;13.27;82.46
15529;BME280;7866;52.280;9.500;2023-04-01T13:42:57;98690.84;;;13.40;81.72
15529;BME280;7866;52.280;9.500;2023-04-01T13:48:28;98704.69;;;13.06;81.38
15529;BME280;7866;52.280;9.500;2023-04-01T13:53:46;98707.31;;;12.95;83.16
15529;BME280;7866;52.280;9.500;2023-04-01T13:59:01;98709.03;;;12.89;83.57
15529;BME280;7866;52.280;9.500;2023-04-01T14:09:48;98724.16;;;12.47;85.56
15529;BME280;7866;52.280;9.500;2023-04-01T14:15:07;98730.94;;;12.24;84.11
15529;BME280;7866;52.280;9.500;2023-04-01T14:20:25;98738.72;;;12.32;85.06
15529;BME280;7866;52.280;9.500;2023-04-01T14:25:41;98749.91;;;12.29;86.83
15529;BME280;7866;52.280;9.500;2023-04-01T14:31:04;98750.94;;;12.28;87.14
15529;BME280;7866;52.280;9.500;2023-04-01T14:36:45;98760.19;;;12.32;86.55
15529;BME280;7866;52.280;9.500;2023-04-01T14:42:03;98768.81;;;12.41;86.27
15529;BME280;7866;52.280;9.500;2023-04-01T14:47:39;98782.19;;;11.91;87.87
15529;BME280;7866;52.280;9.500;2023-04-01T14:52:52;98794.78;;;11.46;93.48
15529;BME280;7866;52.280;9.500;2023-04-01T14:58:13;98808.72;;;11.03;96.62
15529;BME280;7866;52.280;9.500;2023-04-01T15:03:20;98821.72;;;10.79;97.82
15529;BME280;7866;52.280;9.500;2023-04-01T15:08:25;98830.19;;;10.70;99.03
15529;BME280;7866;52.280;9.500;2023-04-01T15:13:46;98848.09;;;10.43;99.82
15529;BME280;7866;52.280;9.500;2023-04-01T15:19:03;98865.41;;;10.33;100.00
15529;BME280;7866;52.280;9.500;2023-04-01T15:24:07;98872.09;;;10.16;100.00
15529;BME280;7866;52.280;9.500;2023-04-01T15:29:27;98872.09;;;10.16;100.00
15529;BME280;7866;52.280;9.500;2023-04-01T15:34:36;98888.31;;;9.95;100.00
15529;BME280;7866;52.280;9.500;2023-04-01T15:39:50;98892.25;;;9.99;100.00
15529;BME280;7866;52.280;9.500;2023-04-01T15:45:08;98910.31;;;9.90;100.00
15529;BME280;7866;52.280;9.500;2023-04-01T15:50:37;98917.66;;;9.75;100.00
15529;BME280;7866;52.280;9.500;2023-04-01T15:55:47;98929.75;;;9.71;100.00
15529;BME280;7866;52.280;9.500;2023-04-01T16:00:57;98946.31;;;9.94;100.00
15529;BME280;7866;52.280;9.500;2023-04-01T16:06:40;98956.28;;;9.66;100.00
15529;BME280;7866;52.280;9.500;2023-04-01T16:11:49;98962.81;;;9.63;100.00
15529;BME280;7866;52.280;9.500;2023-04-01T16:17:12;98983.50;;;9.20;100.00
15529;BME280;7866;52.280;9.500;2023-04-01T16:22:21;98988.25;;;9.24;100.00
15529;BME280;7866;52.280;9.500;2023-04-01T16:27:28;98997.09;;;9.25;100.00
15529;BME280;7866;52.280;9.500;2023-04-01T16:32:38;98999.91;;;9.17;100.00
15529;BME280;7866;52.280;9.500;2023-04-01T16:37:46;99013.97;;;9.04;100.00
15529;BME280;7866;52.280;9.500;2023-04-01T16:42:51;99031.97;;;8.95;100.00
15529;BME280;7866;52.280;9.500;2023-04-01T16:47:57;99051.66;;;8.73;100.00
15529;BME280;7866;52.280;9.500;2023-04-01T16:53:08;99063.66;;;8.62;100.00
15529;BME280;7866;52.280;9.500;2023-04-01T16:58:14;99073.22;;;8.56;100.00
15529;BME280;7866;52.280;9.500;2023-04-01T17:03:26;99082.78;;;8.66;100.00
15529;BME280;7866;52.280;9.500;2023-04-01T17:08:54;99096.63;;;8.54;100.00
15529;BME280;7866;52.280;9.500;2023-04-01T17:14:04;99104.63;;;8.39;100.00
15529;BME280;7866;52.280;9.500;2023-04-01T17:19:26;99119.31;;;8.21;100.00
15529;BME280;7866;52.280;9.500;2023-04-01T17:24:39;99128.09;;;8.44;100.00
15529;BME280;7866;52.280;9.500;2023-04-01T17:30:11;99150.53;;;8.50;99.97
15529;BME280;7866;52.280;9.500;2023-04-01T17:35:19;99153.91;;;8.29;100.00
15529;BME280;7866;52.280;9.500;2023-04-01T17:40:33;99178.78;;;7.92;100.00
15529;BME280;7866;52.280;9.500;2023-04-01T17:45:42;99181.63;;;7.90;100.00
15529;BME280;7866;52.280;9.500;2023-04-01T17:50:57;99205.91;;;7.95;99.58
15529;BME280;7866;52.280;9.500;2023-04-01T17:56:14;99202.13;;;7.89;100.00
15529;BME280;7866;52.280;9.500;2023-04-01T18:01:25;99228.97;;;7.65;100.00
15529;BME280;7866;52.280;9.500;2023-04-01T18:06:34;99241.84;;;7.53;100.00
15529;BME280;7866;52.280;9.500;2023-04-01T18:11:44;99253.28;;;7.62;100.00
15529;BME280;7866;52.280;9.500;2023-04-01T18:17:08;99268.78;;;7.67;99.63
15529;BME280;7866;52.280;9.500;2023-04-01T18:22:19;99269.94;;;7.64;99.13
15529;BME280;7866;52.280;9.500;2023-04-01T18:27:24;99288.16;;;7.52;98.79
15529;BME280;7866;52.280;9.500;2023-04-01T18:32:34;99303.13;;;7.30;97.94
15529;BME280;7866;52.280;9.500;2023-04-01T18:37:42;99309.06;;;7.32;97.83
15529;BME280;7866;52.280;9.500;2023-04-01T18:42:55;99321.19;;;7.43;97.39
15529;BME280;7866;52.280;9.500;2023-04-01T18:48:11;99332.03;;;7.33;97.96
15529;BME280;7866;52.280;9.500;2023-04-01T18:53:23;99339.94;;;7.19;99.13
15529;BME280;7866;52.280;9.500;2023-04-01T18:58:36;99358.91;;;7.15;99.12
15529;BME280;7866;52.280;9.500;2023-04-01T19:03:57;99370.19;;;7.26;98.98
15529;BME280;7866;52.280;9.500;2023-04-01T19:09:24;99381.38;;;7.13;97.97
15529;BME280;7866;52.280;9.500;2023-04-01T19:14:33;99396.22;;;7.07;98.02
15529;BME280;7866;52.280;9.500;2023-04-01T19:19:50;99410.91;;;6.79;99.20
15529;BME280;7866;52.280;9.500;2023-04-01T19:25:05;99420.84;;;6.85;98.62
15529;BME280;7866;52.280;9.500;2023-04-01T19:30:25;99436.31;;;6.73;98.04
15529;BME280;7866;52.280;9.500;2023-04-01T19:35:36;99440.50;;;6.76;98.34
15529;BME280;7866;52.280;9.500;2023-04-01T19:40:50;99454.94;;;6.81;98.48
15529;BME280;7866;52.280;9.500;2023-04-01T19:45:59;99464.13;;;6.71;99.27
15529;BME280;7866;52.280;9.500;2023-04-01T19:51:07;99475.38;;;6.40;98.80
15529;BME280;7866;52.280;9.500;2023-04-01T19:56:16;99488.34;;;6.43;99.47
15529;BME280;7866;52.280;9.500;2023-04-01T20:01:23;99501.75;;;6.25;99.24
15529;BME280;7866;52.280;9.500;2023-04-01T20:06:32;99521.22;;;6.34;99.21
15529;BME280;7866;52.280;9.500;2023-04-01T20:11:50;99529.53;;;6.23;97.41
15529;BME280;7866;52.280;9.500;2023-04-01T20:17:07;99533.88;;;5.98;97.72
15529;BME280;7866;52.280;9.500;2023-04-01T20:22:23;99552.38;;;6.07;97.16
15529;BME280;7866;52.280;9.500;2023-04-01T20:27:31;99558.06;;;6.12;97.87
15529;BME280;7866;52.280;9.500;2023-04-01T20:32:48;99575.31;;;6.08;97.39
15529;BME280;7866;52.280;9.500;2023-04-01T20:38:03;99588.41;;;5.76;97.52
15529;BME280;7866;52.280;9.500;2023-04-01T20:43:27;99601.38;;;5.79;98.62
15529;BME280;7866;52.280;9.500;2023-04-01T20:49:02;99599.75;;;5.60;97.48
15529;BME280;7866;52.280;9.500;2023-04-01T20:54:24;99620.53;;;5.64;97.50
15529;BME280;7866;52.280;9.500;2023-04-01T20:59:56;99633.75;;;5.56;97.09
15529;BME280;7866;52.280;9.500;2023-04-01T21:05:20;99649.06;;;5.62;97.44
15529;BME280;7866;52.280;9.500;2023-04-01T21:10:32;99650.09;;;5.69;98.26
15529;BME280;7866;52.280;9.500;2023-04-01T21:15:44;99665.31;;;5.59;98.61
15529;BME280;7866;52.280;9.500;2023-04-01T21:20:58;99669.50;;;5.44;99.21
15529;BME280;7866;52.280;9.500;2023-04-01T21:26:18;99677.06;;;5.57;98.75
15529;BME280;7866;52.280;9.500;2023-04-01T21:31:36;99692.63;;;5.34;100.00
15529;BME280;7866;52.280;9.500;2023-04-01T21:36:54;99703.91;;;5.18;98.61
15529;BME280;7866;52.280;9.500;2023-04-01T21:42:07;99719.78;;;5.28;98.67
15529;BME280;7866;52.280;9.500;2023-04-01T21:47:44;99722.28;;;5.29;98.55
15529;BME280;7866;52.280;9.500;2023-04-01T21:53:06;99741.31;;;5.25;99.59
15529;BME280;7866;52.280;9.500;2023-04-01T22:04:23;99754.03;;;5.03;100.00
15529;BME280;7866;52.280;9.500;2023-04-01T22:09:37;99766.31;;;5.04;99.33
15529;BME280;7866;52.280;9.500;2023-04-01T22:14:44;99778.50;;;4.97;98.69
15529;BME280;7866;52.280;9.500;2023-04-01T22:19:54;99786.13;;;4.73;98.89
15529;BME280;7866;52.280;9.500;2023-04-01T22:25:08;99792.13;;;4.75;98.75
15529;BME280;7866;52.280;9.500;2023-04-01T22:30:18;99807.75;;;4.78;96.77
15529;BME280;7866;52.280;9.500;2023-04-01T22:35:30;99823.78;;;4.86;97.18
15529;BME280;7866;52.280;9.500;2023-04-01T22:40:38;99822.56;;;4.80;96.75
15529;BME280;7866;52.280;9.500;2023-04-01T22:45:54;99820.91;;;4.69;97.63
15529;BME280;7866;52.280;9.500;2023-04-01T22:51:07;99836.38;;;4.84;98.00
15529;BME280;7866;52.280;9.500;2023-04-01T22:56:16;99850.19;;;4.78;97.95
15529;BME280;7866;52.280;9.500;2023-04-01T23:01:23;99855.94;;;4.73;98.31
15529;BME280;7866;52.280;9.500;2023-04-01T23:06:32;99856.66;;;4.65;98.66
15529;BME280;7866;52.280;9.500;2023-04-01T23:11:43;99871.22;;;4.52;99.35
15529;BME280;7866;52.280;9.500;2023-04-01T23:16:50;99876.75;;;4.58;100.00
15529;BME280;7866;52.280;9.500;2023-04-01T23:22:03;99891.03;;;4.38;100.00
15529;BME280;7866;52.280;9.500;2023-04-01T23:27:09;99895.34;;;4.29;100.00
15529;BME280;7866;52.280;9.500;2023-04-01T23:32:14;99910.28;;;4.30;99.12
15529;BME280;7866;52.280;9.500;2023-04-01T23:37:19;99917.78;;;4.06;98.33
15529;BME280;7866;52.280;9.500;2023-04-01T23:42:24;99925.34;;;4.20;97.65
15529;BME280;7866;52.280;9.500;2023-04-01T23:47:30;99954.06;;;4.05;96.58
15529;BME280;7866;52.280;9.500;2023-04-01T23:52:36;99954.16;;;3.94;96.83
15529;BME280;7866;52.280;9.500;2023-04-01T23:57:40;99956.59;;;4.16;96.89
